createdAt,value
2022-10-11T00:01:54.755Z,78.28
2022-10-11T00:04:21.784Z,76.47
2022-10-11T00:06:48.773Z,78.53
2022-10-11T00:09:16.263Z,72.55
2022-10-11T00:11:43.224Z,78.43
2022-10-11T00:14:10.559Z,73.78
2022-10-11T00:16:40.980Z,75.63
2022-10-11T00:19:07.943Z,77.80
2022-10-11T00:21:34.907Z,76.45
2022-10-11T00:24:01.792Z,77.82
2022-10-11T00:26:29.457Z,74.90
2022-10-11T00:28:56.402Z,75.22
2022-10-11T00:31:23.802Z,73.22
2022-10-11T00:33:52.673Z,69.60
2022-10-11T00:36:19.624Z,76.82
2022-10-11T00:38:46.883Z,75.70
2022-10-11T00:41:13.976Z,77.50
2022-10-11T00:43:41.383Z,69.85
2022-10-11T00:46:14.065Z,73.60
2022-10-11T00:48:45.007Z,78.07
2022-10-11T00:51:28.154Z,77.50
2022-10-11T00:53:55.446Z,77.10
2022-10-11T00:56:29.714Z,79.07
2022-10-11T00:58:57.850Z,80.60
2022-10-11T01:01:24.823Z,79.07
2022-10-11T01:03:51.787Z,79.13
2022-10-11T01:06:18.821Z,79.22
2022-10-11T01:08:45.838Z,76.72
2022-10-11T01:11:16.069Z,76.43
2022-10-11T01:14:04.128Z,79.55
2022-10-11T01:16:56.796Z,77.95
2022-10-11T01:19:52.536Z,75.32
2022-10-11T01:22:38.114Z,81.07
2022-10-11T01:25:13.896Z,83.78
2022-10-11T01:28:00.101Z,83.85
2022-10-11T01:30:33.093Z,82.05
2022-10-11T01:33:23.999Z,71.60
2022-10-11T01:36:27.886Z,76.15
2022-10-11T01:39:03.107Z,78.72
2022-10-11T01:41:51.361Z,78.15
2022-10-11T01:44:19.561Z,75.10
2022-10-11T01:46:46.747Z,75.07
2022-10-11T01:49:13.650Z,75.15
2022-10-11T01:51:50.653Z,65.55
2022-10-11T01:54:56.671Z,66.38
2022-10-11T01:57:43.659Z,67.45
2022-10-11T02:00:13.379Z,71.15
2022-10-11T02:02:40.210Z,64.00
2022-10-11T02:05:16.352Z,68.32
2022-10-11T02:07:57.796Z,64.32
2022-10-11T02:10:50.867Z,68.93
2022-10-11T02:13:36.041Z,70.55
2022-10-11T02:16:06.950Z,73.43
2022-10-11T02:18:39.282Z,76.18
2022-10-11T02:21:09.665Z,72.03
2022-10-11T02:23:44.193Z,70.50
2022-10-11T02:26:12.283Z,72.13
2022-10-11T02:28:43.069Z,67.22
2022-10-11T02:31:12.124Z,70.05
2022-10-11T02:34:02.728Z,71.25
2022-10-11T02:37:01.594Z,69.05
2022-10-11T02:39:37.649Z,68.82
2022-10-11T02:42:09.742Z,73.57
2022-10-11T02:44:43.604Z,73.18
2022-10-11T02:47:11.561Z,67.53
2022-10-11T02:49:38.653Z,67.35
2022-10-11T02:52:06.379Z,69.80
2022-10-11T02:54:33.281Z,69.68
2022-10-11T02:57:00.233Z,73.85
2022-10-11T02:59:27.212Z,67.97
2022-10-11T03:01:54.225Z,66.72
2022-10-11T03:04:21.143Z,68.65
2022-10-11T03:06:48.110Z,69.22
2022-10-11T03:09:15.009Z,69.38
2022-10-11T03:11:41.904Z,68.85
2022-10-11T03:14:08.850Z,70.65
2022-10-11T03:17:35.185Z,70.28
2022-10-11T03:19:59.324Z,69.43
2022-10-11T03:22:26.200Z,64.15
2022-10-11T03:24:53.068Z,68.97
2022-10-11T03:27:20.010Z,61.97
2022-10-11T03:29:46.987Z,66.22
2022-10-11T03:32:13.870Z,56.90
2022-10-11T03:34:40.872Z,60.67
2022-10-11T03:37:07.717Z,62.22
2022-10-11T03:39:34.640Z,57.33
2022-10-11T03:42:01.574Z,64.30
2022-10-11T03:44:28.450Z,56.42
2022-10-11T03:46:55.317Z,63.80
2022-10-11T03:49:22.207Z,65.72
2022-10-11T03:51:49.146Z,68.35
2022-10-11T03:54:16.110Z,60.80
2022-10-11T03:56:43.020Z,59.25
2022-10-11T03:59:10.738Z,63.28
2022-10-11T04:01:38.651Z,60.28
2022-10-11T04:04:06.008Z,59.75
2022-10-11T04:06:33.432Z,56.40
2022-10-11T04:09:01.353Z,58.60
2022-10-11T04:11:28.451Z,59.20
2022-10-11T04:13:55.368Z,62.92
2022-10-11T04:16:22.444Z,61.53
2022-10-11T04:18:49.436Z,55.50
2022-10-11T04:21:16.360Z,60.22
2022-10-11T04:23:43.284Z,55.80
2022-10-11T04:26:10.266Z,57.45
2022-10-11T04:28:37.193Z,60.92
2022-10-11T04:31:05.261Z,57.55
2022-10-11T04:33:32.230Z,55.38
2022-10-11T04:35:59.134Z,50.95
2022-10-11T04:38:26.184Z,53.22
2022-10-11T04:40:53.126Z,52.55
2022-10-11T04:43:20.207Z,53.90
2022-10-11T04:45:47.166Z,52.05
2022-10-11T04:48:14.461Z,57.03
2022-10-11T04:50:41.338Z,56.17
2022-10-11T04:53:08.284Z,58.53
2022-10-11T04:55:35.309Z,56.67
2022-10-11T04:58:02.307Z,56.75
2022-10-11T05:00:29.248Z,55.13
2022-10-11T05:02:56.276Z,56.08
2022-10-11T05:05:23.234Z,63.00
2022-10-11T05:07:50.225Z,62.92
2022-10-11T05:10:17.255Z,59.40
2022-10-11T05:12:44.178Z,58.75
2022-10-11T05:15:11.310Z,61.45
2022-10-11T05:17:38.294Z,60.05
2022-10-11T05:20:05.733Z,57.47
2022-10-11T05:22:32.671Z,57.92
2022-10-11T05:24:59.598Z,60.75
2022-10-11T05:27:26.468Z,55.13
2022-10-11T05:29:53.336Z,59.85
2022-10-11T05:32:20.306Z,56.72
2022-10-11T05:34:47.183Z,52.28
2022-10-11T05:37:14.067Z,53.97
2022-10-11T05:39:40.977Z,53.75
2022-10-11T05:42:10.029Z,60.83
2022-10-11T05:44:37.187Z,58.13
2022-10-11T05:47:04.133Z,59.55
2022-10-11T05:49:31.005Z,58.25
2022-10-11T05:51:57.930Z,73.75
2022-10-11T05:54:24.891Z,61.20
2022-10-11T05:56:51.813Z,60.38
2022-10-11T05:59:18.707Z,64.82
2022-10-11T06:01:45.672Z,65.85
2022-10-11T06:04:13.110Z,65.40
2022-10-11T06:06:40.036Z,69.13
2022-10-11T06:09:06.975Z,68.82
2022-10-11T06:11:34.293Z,64.00
2022-10-11T06:14:01.276Z,63.10
2022-10-11T06:16:28.181Z,66.75
2022-10-11T06:18:56.544Z,71.47
2022-10-11T06:21:24.559Z,65.72
2022-10-11T06:23:56.877Z,64.53
2022-10-11T06:26:27.224Z,66.93
2022-10-11T06:28:54.191Z,59.92
2022-10-11T06:31:21.122Z,64.03
2022-10-11T06:33:48.057Z,63.00
2022-10-11T06:36:16.806Z,56.33
2022-10-11T06:38:45.331Z,60.08
2022-10-11T06:41:24.363Z,62.60
2022-10-11T06:43:51.266Z,59.20
2022-10-11T06:46:22.812Z,54.78
2022-10-11T06:48:50.464Z,50.67
2022-10-11T06:51:20.430Z,47.67
2022-10-11T06:53:56.816Z,46.13
2022-10-11T06:56:24.869Z,46.63
2022-10-11T06:58:52.900Z,47.95
2022-10-11T07:01:21.690Z,43.05
2022-10-11T07:03:49.342Z,47.47
2022-10-11T07:06:20.039Z,43.33
2022-10-11T07:08:47.977Z,43.15
2022-10-11T07:11:17.463Z,43.60
2022-10-11T07:13:53.190Z,41.10
2022-10-11T07:16:21.037Z,42.15
2022-10-11T07:18:48.305Z,41.75
2022-10-11T07:21:16.485Z,41.90
2022-10-11T07:23:43.455Z,40.50
2022-10-11T07:26:11.192Z,39.60
2022-10-11T07:28:40.079Z,38.60
2022-10-11T07:31:09.955Z,40.28
2022-10-11T07:33:37.040Z,36.95
2022-10-11T07:36:05.432Z,39.42
2022-10-11T07:38:33.518Z,37.50
2022-10-11T07:41:05.380Z,36.97
2022-10-11T07:43:32.545Z,40.57
2022-10-11T07:46:04.740Z,38.05
2022-10-11T07:48:36.510Z,34.60
2022-10-11T07:51:06.800Z,39.15
2022-10-11T07:53:39.800Z,37.08
2022-10-11T07:56:07.872Z,37.22
2022-10-11T07:58:35.319Z,37.55
2022-10-11T08:01:02.311Z,39.03
2022-10-11T08:03:29.832Z,37.70
2022-10-11T08:06:04.597Z,36.55
2022-10-11T08:08:31.743Z,38.72
2022-10-11T08:10:59.542Z,36.75
2022-10-11T08:13:27.043Z,35.63
2022-10-11T08:15:54.037Z,35.60
2022-10-11T08:18:21.297Z,38.45
2022-10-11T08:20:48.284Z,38.00
2022-10-11T08:23:16.787Z,36.42
2022-10-11T08:25:47.125Z,35.00
2022-10-11T08:28:17.406Z,38.35
2022-10-11T08:30:49.697Z,37.35
2022-10-11T08:33:18.126Z,38.20
2022-10-11T08:38:38.725Z,38.30
2022-10-11T08:41:43.320Z,37.22
2022-10-11T08:45:09.411Z,45.17
2022-10-11T08:47:41.261Z,40.35
2022-10-11T08:50:19.850Z,40.00
2022-10-11T08:53:22.279Z,37.13
2022-10-11T08:55:54.524Z,39.60
2022-10-11T08:58:46.876Z,40.70
2022-10-11T09:01:23.744Z,38.58
2022-10-11T09:03:51.281Z,40.15
2022-10-11T09:06:23.985Z,37.80
2022-10-11T09:11:52.531Z,34.35
2022-10-11T09:17:01.263Z,37.92
2022-10-11T09:19:46.188Z,38.65
2022-10-11T09:22:58.033Z,41.15
2022-10-11T09:25:27.992Z,36.17
2022-10-11T09:28:22.056Z,39.50
2022-10-11T09:30:52.783Z,40.83
2022-10-11T09:33:33.237Z,36.97
2022-10-11T09:36:02.565Z,37.00
2022-10-11T09:39:06.444Z,37.35
2022-10-11T09:41:52.581Z,35.78
2022-10-11T09:44:25.844Z,35.35
2022-10-11T09:46:55.003Z,36.95
2022-10-11T09:49:25.528Z,39.53
2022-10-11T09:51:55.928Z,37.95
2022-10-11T09:54:37.918Z,34.95
2022-10-11T09:57:05.268Z,34.47
2022-10-11T09:59:34.018Z,36.17
2022-10-11T10:02:13.157Z,38.63
2022-10-11T10:04:59.291Z,36.00
2022-10-11T10:07:26.915Z,37.42
2022-10-11T10:09:54.061Z,40.00
2022-10-11T10:12:38.470Z,38.72
2022-10-11T10:15:07.304Z,36.13
2022-10-11T10:17:37.126Z,38.05
2022-10-11T10:20:05.765Z,35.58
2022-10-11T10:22:35.743Z,37.95
2022-10-11T10:25:08.181Z,37.88
2022-10-11T10:27:38.383Z,36.03
2022-10-11T10:30:08.950Z,36.35
2022-10-11T10:32:48.685Z,37.15
2022-10-11T10:35:24.595Z,37.65
2022-10-11T10:38:00.143Z,36.42
2022-10-11T10:40:49.624Z,38.58
2022-10-11T10:43:29.077Z,38.08
2022-10-11T10:46:30.051Z,36.63
2022-10-11T10:49:53.037Z,37.55
2022-10-11T10:52:26.198Z,38.75
2022-10-11T10:55:35.873Z,32.55
2022-10-11T10:58:35.395Z,38.38
2022-10-11T11:01:25.617Z,39.97
2022-10-11T11:03:52.527Z,33.05
2022-10-11T11:06:48.381Z,36.80
2022-10-11T11:09:27.217Z,42.70
2022-10-11T11:11:59.987Z,37.05
2022-10-11T11:14:51.460Z,36.05
2022-10-11T11:17:56.073Z,37.50
2022-10-11T11:20:53.765Z,37.55
2022-10-11T11:23:30.892Z,40.33
2022-10-11T11:26:25.387Z,40.63
2022-10-11T11:29:04.288Z,39.65
2022-10-11T11:31:57.575Z,37.92
2022-10-11T11:34:34.016Z,34.53
2022-10-11T11:37:07.227Z,34.97
2022-10-11T11:39:47.641Z,35.90
2022-10-11T11:42:47.010Z,41.60
2022-10-11T11:45:36.825Z,38.20
2022-10-11T11:48:10.439Z,34.88
2022-10-11T11:50:41.742Z,38.25
2022-10-11T11:53:23.702Z,36.17
2022-10-11T11:55:56.653Z,34.23
2022-10-11T11:58:41.626Z,36.42
2022-10-11T12:01:30.945Z,34.75
2022-10-11T12:04:05.076Z,38.50
2022-10-11T12:06:47.807Z,38.42
2022-10-11T12:09:23.964Z,37.83
2022-10-11T12:11:58.684Z,36.55
2022-10-11T12:14:45.832Z,39.63
2022-10-11T12:17:23.677Z,37.35
2022-10-11T12:20:12.372Z,39.70
2022-10-11T12:23:00.582Z,36.95
2022-10-11T12:25:29.012Z,37.95
2022-10-11T12:27:58.581Z,39.13
2022-10-11T12:30:44.492Z,35.58
2022-10-11T12:33:22.338Z,39.28
2022-10-11T12:35:55.342Z,35.40
2022-10-11T12:38:28.931Z,31.92
2022-10-11T12:41:03.231Z,39.85
2022-10-11T12:43:50.353Z,37.30
2022-10-11T12:46:29.618Z,36.75
2022-10-11T12:49:24.725Z,35.28
2022-10-11T12:52:16.584Z,38.88
2022-10-11T12:55:13.768Z,38.65
2022-10-11T12:58:06.134Z,37.78
2022-10-11T13:00:51.772Z,38.72
2022-10-11T13:03:34.030Z,40.10
2022-10-11T13:06:15.820Z,40.40
2022-10-11T13:08:47.500Z,40.67
2022-10-11T13:11:21.357Z,41.00
2022-10-11T13:13:55.579Z,37.85
2022-10-11T13:16:28.731Z,38.03
2022-10-11T13:18:59.787Z,37.67
2022-10-11T13:21:34.689Z,38.90
2022-10-11T13:24:18.765Z,35.67
2022-10-11T13:26:49.122Z,40.55
2022-10-11T13:29:36.458Z,40.28
2022-10-11T13:32:10.849Z,42.75
2022-10-11T13:34:40.651Z,43.17
2022-10-11T13:37:08.208Z,37.22
2022-10-11T13:39:37.727Z,38.60
2022-10-11T13:42:12.017Z,45.42
2022-10-11T13:44:39.691Z,40.50
2022-10-11T13:47:07.206Z,34.85
2022-10-11T13:49:40.382Z,33.75
2022-10-11T13:52:20.096Z,36.80
2022-10-11T13:55:09.908Z,38.05
2022-10-11T13:57:46.932Z,38.03
2022-10-11T14:00:19.459Z,36.70
2022-10-11T14:03:06.953Z,38.88
2022-10-11T14:05:42.447Z,36.45
2022-10-11T14:08:44.334Z,46.28
2022-10-11T14:11:12.847Z,49.47
2022-10-11T14:13:50.106Z,48.70
2022-10-11T14:16:20.319Z,53.28
2022-10-11T14:19:02.289Z,49.20
2022-10-11T14:21:30.989Z,48.83
2022-10-11T14:24:05.224Z,52.88
2022-10-11T14:26:36.109Z,53.40
2022-10-11T14:29:13.661Z,52.80
2022-10-11T14:31:42.219Z,52.38
2022-10-11T14:34:21.770Z,52.13
2022-10-11T14:36:49.386Z,51.03
2022-10-11T14:39:21.631Z,50.08
2022-10-11T14:41:49.899Z,47.58
2022-10-11T14:44:17.682Z,49.10
2022-10-11T14:46:46.584Z,45.35
2022-10-11T14:49:25.191Z,43.28
2022-10-11T14:51:53.942Z,42.22
2022-10-11T14:54:23.612Z,40.33
2022-10-11T14:56:51.946Z,40.42
2022-10-11T14:59:22.277Z,40.28
2022-10-11T15:01:53.994Z,38.40
2022-10-11T15:04:22.707Z,39.27
2022-10-11T15:06:50.440Z,40.10
2022-10-11T15:09:20.771Z,40.63
2022-10-11T15:11:49.553Z,40.17
2022-10-11T15:14:16.432Z,38.65
2022-10-11T15:16:43.504Z,43.70
2022-10-11T15:19:22.237Z,44.33
2022-10-11T15:21:49.919Z,45.00
2022-10-11T15:24:20.022Z,42.63
2022-10-11T15:26:47.802Z,41.63
2022-10-11T15:29:17.935Z,41.33
2022-10-11T15:31:46.139Z,40.58
2022-10-11T15:34:13.102Z,42.42
2022-10-11T15:36:40.022Z,40.90
2022-10-11T15:39:39.183Z,42.58
2022-10-11T15:42:06.835Z,39.85
2022-10-11T15:44:33.777Z,42.58
2022-10-11T15:47:00.643Z,39.15
2022-10-11T15:49:27.536Z,40.95
2022-10-11T15:51:54.474Z,41.53
2022-10-11T15:54:21.376Z,40.97
2022-10-11T15:56:48.328Z,40.85
2022-10-11T15:59:15.275Z,40.70
2022-10-11T16:01:42.273Z,41.35
2022-10-11T16:04:10.249Z,43.13
2022-10-11T16:06:37.136Z,43.55
2022-10-11T16:09:04.276Z,42.17
2022-10-11T16:11:31.241Z,42.67
2022-10-11T16:13:58.236Z,45.92
2022-10-11T16:16:25.185Z,46.15
2022-10-11T16:18:52.474Z,46.08
2022-10-11T16:21:20.924Z,45.60
2022-10-11T16:23:47.810Z,45.00
2022-10-11T16:26:16.626Z,47.40
2022-10-11T16:28:43.945Z,48.75
2022-10-11T16:31:16.846Z,44.92
2022-10-11T16:33:47.986Z,48.60
2022-10-11T16:36:32.929Z,47.58
2022-10-11T16:39:01.464Z,49.17
2022-10-11T16:41:28.465Z,47.38
2022-10-11T16:43:56.080Z,46.25
2022-10-11T16:46:23.268Z,47.33
2022-10-11T16:48:50.544Z,47.45
2022-10-11T16:51:17.644Z,50.58
2022-10-11T16:53:44.585Z,46.95
2022-10-11T16:56:12.208Z,47.20
2022-10-11T16:58:39.227Z,48.55
2022-10-11T17:01:11.137Z,52.17
2022-10-11T17:03:38.523Z,47.33
2022-10-11T17:06:06.789Z,48.08
2022-10-11T17:08:35.215Z,48.75
2022-10-11T17:11:02.266Z,49.47
2022-10-11T17:13:29.719Z,49.83
2022-10-11T17:15:56.768Z,50.78
2022-10-11T17:18:23.998Z,52.75
2022-10-11T17:20:50.926Z,50.75
2022-10-11T17:23:17.889Z,51.55
2022-10-11T17:25:46.828Z,48.75
2022-10-11T17:28:17.080Z,48.72
2022-10-11T17:30:53.565Z,64.10
2022-10-11T17:33:20.570Z,51.42
2022-10-11T17:35:47.480Z,54.28
2022-10-11T17:38:14.458Z,51.90
2022-10-11T17:40:41.679Z,51.47
2022-10-11T17:43:09.249Z,52.10
2022-10-11T17:45:36.172Z,48.65
2022-10-11T17:48:04.265Z,50.28
2022-10-11T17:50:32.252Z,52.85
2022-10-11T17:52:59.350Z,49.38
2022-10-11T17:55:26.297Z,49.13
2022-10-11T17:57:53.209Z,51.75
2022-10-11T18:00:20.600Z,52.28
2022-10-11T18:02:47.882Z,54.47
2022-10-11T18:05:16.787Z,53.58
2022-10-11T18:07:43.698Z,53.53
2022-10-11T18:10:10.635Z,55.33
2022-10-11T18:12:37.555Z,53.08
2022-10-11T18:15:04.653Z,55.15
2022-10-11T18:17:31.625Z,54.55
2022-10-11T18:19:58.739Z,54.47
2022-10-11T18:22:25.763Z,55.42
2022-10-11T18:24:52.709Z,54.13
2022-10-11T18:27:19.659Z,58.85
2022-10-11T18:29:46.570Z,56.58
2022-10-11T18:32:13.453Z,55.33
2022-10-11T18:34:40.583Z,53.47
2022-10-11T18:37:07.478Z,54.85
2022-10-11T18:39:34.402Z,52.55
2022-10-11T18:42:04.605Z,51.78
2022-10-11T18:44:32.278Z,52.28
2022-10-11T18:46:59.276Z,61.03
2022-10-11T18:49:26.184Z,62.38
2022-10-11T18:51:53.094Z,59.85
2022-10-11T18:54:21.370Z,62.00
2022-10-11T18:56:49.088Z,59.83
2022-10-11T18:59:16.233Z,60.80
2022-10-11T19:01:44.829Z,60.03
2022-10-11T19:04:15.987Z,58.65
2022-10-11T19:06:45.475Z,60.72
2022-10-11T19:09:23.354Z,64.43
2022-10-11T19:11:52.041Z,61.75
2022-10-11T19:14:25.161Z,65.30
2022-10-11T19:16:53.029Z,67.22
2022-10-11T19:19:23.042Z,63.80
2022-10-11T19:21:51.867Z,62.80
2022-10-11T19:24:21.780Z,63.97
2022-10-11T19:26:51.330Z,67.05
2022-10-11T19:29:20.905Z,72.95
2022-10-11T19:31:59.490Z,79.90
2022-10-11T19:34:27.778Z,69.18
2022-10-11T19:37:01.031Z,70.43
2022-10-11T19:39:30.557Z,70.20
2022-10-11T19:41:57.592Z,64.60
2022-10-11T19:44:24.854Z,65.78
2022-10-11T19:46:53.126Z,61.78
2022-10-11T19:49:24.905Z,58.58
2022-10-11T19:51:53.892Z,59.95
2022-10-11T19:54:20.864Z,55.17
2022-10-11T19:56:48.009Z,58.10
2022-10-11T19:59:15.730Z,57.95
2022-10-11T20:01:46.645Z,54.42
2022-10-11T20:04:33.499Z,58.95
2022-10-11T20:07:03.996Z,57.22
2022-10-11T20:09:31.252Z,56.08
2022-10-11T20:11:58.578Z,56.55
2022-10-11T20:14:26.350Z,57.35
2022-10-11T20:16:53.765Z,55.15
2022-10-11T20:19:29.347Z,54.17
2022-10-11T20:21:57.796Z,52.55
2022-10-11T20:24:27.669Z,54.20
2022-10-11T20:26:55.438Z,56.63
2022-10-11T20:29:28.469Z,60.42
2022-10-11T20:31:56.433Z,55.83
2022-10-11T20:34:23.558Z,56.75
2022-10-11T20:36:50.615Z,58.67
2022-10-11T20:39:18.297Z,58.80
2022-10-11T20:41:45.260Z,59.58
2022-10-11T20:44:13.345Z,57.63
2022-10-11T20:46:40.271Z,54.85
2022-10-11T20:49:11.608Z,56.83
2022-10-11T20:51:40.209Z,53.20
2022-10-11T20:54:07.306Z,49.28
2022-10-11T20:56:35.119Z,50.75
2022-10-11T20:59:02.146Z,49.63
2022-10-11T21:01:31.943Z,50.17
2022-10-11T21:04:00.674Z,51.38
2022-10-11T21:06:29.031Z,55.20
2022-10-11T21:08:56.667Z,51.83
2022-10-11T21:11:27.655Z,52.13
2022-10-11T21:13:56.456Z,51.65
2022-10-11T21:16:23.810Z,49.05
2022-10-11T21:18:52.031Z,54.00
2022-10-11T21:21:19.999Z,51.78
2022-10-11T21:23:47.246Z,54.92
2022-10-11T21:26:15.792Z,49.75
2022-10-11T21:28:44.302Z,52.83
2022-10-11T21:31:15.559Z,55.30
2022-10-11T21:33:43.942Z,55.45
2022-10-11T21:36:13.954Z,52.38
2022-10-11T21:38:40.987Z,53.00
2022-10-11T21:41:10.573Z,50.38
2022-10-11T21:43:38.541Z,49.78
2022-10-11T21:46:14.466Z,52.13
2022-10-11T21:48:41.444Z,50.88
2022-10-11T21:51:16.485Z,51.92
2022-10-11T21:53:43.396Z,51.92
2022-10-11T21:56:10.366Z,51.63
2022-10-11T21:58:37.453Z,51.95
2022-10-11T22:01:04.487Z,50.80
2022-10-11T22:03:31.434Z,52.40
2022-10-11T22:06:01.344Z,49.75
2022-10-11T22:08:28.335Z,49.67
2022-10-11T22:10:58.573Z,49.67
2022-10-11T22:13:27.537Z,49.95
2022-10-11T22:15:56.450Z,47.97
2022-10-11T22:18:24.667Z,46.78
2022-10-11T22:20:51.927Z,46.70
2022-10-11T22:23:19.364Z,47.15
2022-10-11T22:25:46.515Z,51.30
2022-10-11T22:28:13.675Z,47.47
2022-10-11T22:30:40.684Z,49.55
2022-10-11T22:33:07.568Z,48.47
2022-10-11T22:35:38.038Z,46.20
2022-10-11T22:38:06.336Z,47.63
2022-10-11T22:40:33.381Z,47.92
2022-10-11T22:43:00.468Z,50.63
2022-10-11T22:45:27.464Z,46.70
2022-10-11T22:47:54.337Z,45.53
2022-10-11T22:50:21.461Z,45.58
2022-10-11T22:52:48.410Z,47.22
2022-10-11T22:55:19.908Z,45.80
2022-10-11T22:57:47.226Z,47.10
2022-10-11T23:00:14.941Z,46.63
2022-10-11T23:02:41.992Z,46.65
2022-10-11T23:05:09.008Z,46.53
2022-10-11T23:07:36.298Z,49.80
2022-10-11T23:10:04.006Z,51.80
2022-10-11T23:12:31.091Z,49.35
2022-10-11T23:14:58.106Z,51.08
2022-10-11T23:17:25.043Z,51.03
2022-10-11T23:19:52.806Z,54.42
2022-10-11T23:22:19.759Z,51.53
2022-10-11T23:24:46.657Z,51.10
2022-10-11T23:27:13.547Z,53.55
2022-10-11T23:29:41.495Z,54.95
2022-10-11T23:32:09.364Z,49.17
2022-10-11T23:34:36.705Z,50.92
2022-10-11T23:37:04.596Z,52.95
2022-10-11T23:39:31.556Z,52.10
2022-10-11T23:41:58.509Z,51.20
2022-10-11T23:44:25.428Z,51.50
2022-10-11T23:46:52.350Z,50.42
2022-10-11T23:49:19.230Z,50.95
2022-10-11T23:51:46.176Z,52.28
2022-10-11T23:54:13.088Z,54.42
2022-10-11T23:56:39.993Z,56.10
2022-10-11T23:59:07.056Z,54.88
